Terminal Aerodrome Forecast
Issued by NWS

Home | Current Version | Previous Version | Text Only | Print | Product List | Glossary On
Versions: 1 2 3 4 5 6 7 8 9 10 11 12 13 14 15 16 17
000
FTUS45 KABQ 030500
TAFSAF
TAF
KSAF 030535Z 0306/0406 25009KT P6SM -RASN OVC025
     FM030800 25007KT P6SM BKN040
     FM031300 29010KT P6SM FEW030
     FM031800 24012KT P6SM FEW060
     FM040100 01006KT P6SM SCT060=

USA.gov is the U.S. government's official web portal to all federal, state and local government web resources and services.